sensor_id;sensor_type;location;lat;lon;timestamp;pressure;altitude;pressure_sealevel;temperature;humidity
46638;BME280;32365;46.938;7.390;2022-09-11T00:00:36;95607.19;;;13.77;81.73
46638;BME280;32365;46.938;7.390;2022-09-11T00:03:03;95609.19;;;13.70;82.24
46638;BME280;32365;46.938;7.390;2022-09-11T00:05:31;95613.53;;;13.64;82.70
46638;BME280;32365;46.938;7.390;2022-09-11T00:07:57;95615.13;;;13.65;82.11
46638;BME280;32365;46.938;7.390;2022-09-11T00:10:24;95612.28;;;13.67;82.97
46638;BME280;32365;46.938;7.390;2022-09-11T00:12:51;95619.66;;;13.53;83.75
46638;BME280;32365;46.938;7.390;2022-09-11T00:15:18;95618.72;;;13.42;84.59
46638;BME280;32365;46.938;7.390;2022-09-11T00:17:44;95614.00;;;13.22;85.11
46638;BME280;32365;46.938;7.390;2022-09-11T00:20:10;95607.78;;;13.40;83.78
46638;BME280;32365;46.938;7.390;2022-09-11T00:22:38;95612.81;;;13.47;82.84
46638;BME280;32365;46.938;7.390;2022-09-11T00:25:06;95611.59;;;13.37;83.44
46638;BME280;32365;46.938;7.390;2022-09-11T00:27:33;95607.41;;;13.36;83.41
46638;BME280;32365;46.938;7.390;2022-09-11T00:29:59;95607.19;;;13.38;83.41
46638;BME280;32365;46.938;7.390;2022-09-11T00:32:25;95604.81;;;13.36;83.08
46638;BME280;32365;46.938;7.390;2022-09-11T00:34:52;95597.56;;;13.38;83.28
46638;BME280;32365;46.938;7.390;2022-09-11T00:37:19;95601.91;;;13.33;83.88
46638;BME280;32365;46.938;7.390;2022-09-11T00:39:47;95602.63;;;13.28;84.00
46638;BME280;32365;46.938;7.390;2022-09-11T00:42:14;95607.84;;;13.28;84.58
46638;BME280;32365;46.938;7.390;2022-09-11T00:44:57;95613.03;;;13.28;84.22
46638;BME280;32365;46.938;7.390;2022-09-11T00:47:25;95614.38;;;13.31;84.46
46638;BME280;32365;46.938;7.390;2022-09-11T00:49:52;95606.34;;;13.32;84.24
46638;BME280;32365;46.938;7.390;2022-09-11T00:52:19;95605.47;;;13.27;84.82
46638;BME280;32365;46.938;7.390;2022-09-11T00:54:50;95603.44;;;13.29;84.44
46638;BME280;32365;46.938;7.390;2022-09-11T00:57:20;95604.47;;;13.28;84.14
46638;BME280;32365;46.938;7.390;2022-09-11T00:59:48;95598.53;;;13.49;82.52
46638;BME280;32365;46.938;7.390;2022-09-11T01:02:17;95597.13;;;13.42;82.82
46638;BME280;32365;46.938;7.390;2022-09-11T01:04:44;95598.16;;;13.41;81.75
46638;BME280;32365;46.938;7.390;2022-09-11T01:07:11;95592.53;;;13.32;82.15
46638;BME280;32365;46.938;7.390;2022-09-11T01:09:39;95588.69;;;13.34;81.79
46638;BME280;32365;46.938;7.390;2022-09-11T01:12:09;95584.75;;;13.32;82.44
46638;BME280;32365;46.938;7.390;2022-09-11T01:14:40;95577.44;;;13.29;83.42
46638;BME280;32365;46.938;7.390;2022-09-11T01:17:13;95580.03;;;13.29;83.63
46638;BME280;32365;46.938;7.390;2022-09-11T01:19:46;95582.56;;;13.23;83.93
46638;BME280;32365;46.938;7.390;2022-09-11T01:22:33;95581.44;;;13.19;83.89
46638;BME280;32365;46.938;7.390;2022-09-11T01:25:08;95575.22;;;13.20;83.52
46638;BME280;32365;46.938;7.390;2022-09-11T01:27:40;95580.44;;;13.20;84.35
46638;BME280;32365;46.938;7.390;2022-09-11T01:30:08;95578.00;;;13.14;84.58
46638;BME280;32365;46.938;7.390;2022-09-11T01:32:38;95571.03;;;12.97;85.49
46638;BME280;32365;46.938;7.390;2022-09-11T01:35:09;95574.81;;;12.89;85.69
46638;BME280;32365;46.938;7.390;2022-09-11T01:37:39;95579.44;;;12.87;85.86
46638;BME280;32365;46.938;7.390;2022-09-11T01:40:08;95579.28;;;12.77;86.62
46638;BME280;32365;46.938;7.390;2022-09-11T01:42:37;95578.97;;;12.73;86.99
46638;BME280;32365;46.938;7.390;2022-09-11T01:45:08;95572.50;;;12.59;87.97
46638;BME280;32365;46.938;7.390;2022-09-11T01:47:36;95573.94;;;12.50;89.02
46638;BME280;32365;46.938;7.390;2022-09-11T01:50:05;95569.97;;;12.47;89.04
46638;BME280;32365;46.938;7.390;2022-09-11T01:52:34;95577.38;;;12.38;89.29
46638;BME280;32365;46.938;7.390;2022-09-11T01:55:02;95584.78;;;12.46;89.81
46638;BME280;32365;46.938;7.390;2022-09-11T01:57:31;95579.75;;;12.57;88.97
46638;BME280;32365;46.938;7.390;2022-09-11T02:00:01;95583.97;;;12.63;88.18
46638;BME280;32365;46.938;7.390;2022-09-11T02:02:33;95579.03;;;12.61;88.04
46638;BME280;32365;46.938;7.390;2022-09-11T02:05:02;95583.97;;;12.46;88.75
46638;BME280;32365;46.938;7.390;2022-09-11T02:07:31;95589.72;;;12.48;88.38
46638;BME280;32365;46.938;7.390;2022-09-11T02:10:00;95593.19;;;12.71;86.75
46638;BME280;32365;46.938;7.390;2022-09-11T02:12:29;95589.44;;;12.78;86.48
46638;BME280;32365;46.938;7.390;2022-09-11T02:14:59;95582.09;;;12.75;86.81
46638;BME280;32365;46.938;7.390;2022-09-11T02:17:27;95578.19;;;12.73;86.49
46638;BME280;32365;46.938;7.390;2022-09-11T02:20:02;95575.88;;;12.76;86.49
46638;BME280;32365;46.938;7.390;2022-09-11T02:22:29;95581.25;;;12.87;85.99
46638;BME280;32365;46.938;7.390;2022-09-11T02:24:55;95585.41;;;12.88;85.38
46638;BME280;32365;46.938;7.390;2022-09-11T02:27:23;95577.41;;;12.89;86.07
46638;BME280;32365;46.938;7.390;2022-09-11T02:29:50;95573.94;;;12.84;85.49
46638;BME280;32365;46.938;7.390;2022-09-11T02:32:17;95575.50;;;12.85;85.71
46638;BME280;32365;46.938;7.390;2022-09-11T02:34:44;95573.22;;;12.71;86.59
46638;BME280;32365;46.938;7.390;2022-09-11T02:37:15;95574.09;;;12.77;87.06
46638;BME280;32365;46.938;7.390;2022-09-11T02:42:31;95578.56;;;12.82;86.03
46638;BME280;32365;46.938;7.390;2022-09-11T02:45:01;95579.34;;;12.82;86.19
46638;BME280;32365;46.938;7.390;2022-09-11T02:47:34;95577.47;;;12.77;86.76
46638;BME280;32365;46.938;7.390;2022-09-11T02:50:06;95577.41;;;12.72;86.60
46638;BME280;32365;46.938;7.390;2022-09-11T02:52:39;95573.13;;;12.66;86.52
46638;BME280;32365;46.938;7.390;2022-09-11T02:55:09;95577.09;;;12.69;85.52
46638;BME280;32365;46.938;7.390;2022-09-11T02:57:38;95577.88;;;12.69;84.26
46638;BME280;32365;46.938;7.390;2022-09-11T03:00:07;95579.84;;;12.62;84.63
46638;BME280;32365;46.938;7.390;2022-09-11T03:02:35;95569.91;;;12.59;85.75
46638;BME280;32365;46.938;7.390;2022-09-11T03:05:04;95572.25;;;12.43;86.15
46638;BME280;32365;46.938;7.390;2022-09-11T03:07:31;95576.09;;;12.41;86.27
46638;BME280;32365;46.938;7.390;2022-09-11T03:09:59;95583.06;;;12.23;87.24
46638;BME280;32365;46.938;7.390;2022-09-11T03:12:26;95580.53;;;12.11;88.09
46638;BME280;32365;46.938;7.390;2022-09-11T03:14:52;95575.38;;;11.99;88.74
46638;BME280;32365;46.938;7.390;2022-09-11T03:17:19;95574.84;;;11.85;89.61
46638;BME280;32365;46.938;7.390;2022-09-11T03:19:46;95572.63;;;11.77;90.63
46638;BME280;32365;46.938;7.390;2022-09-11T03:22:12;95572.56;;;12.01;89.56
46638;BME280;32365;46.938;7.390;2022-09-11T03:24:38;95570.28;;;11.93;89.33
46638;BME280;32365;46.938;7.390;2022-09-11T03:27:06;95571.78;;;11.89;89.31
46638;BME280;32365;46.938;7.390;2022-09-11T03:29:33;95573.38;;;11.78;90.21
46638;BME280;32365;46.938;7.390;2022-09-11T03:31:59;95563.72;;;11.73;91.10
46638;BME280;32365;46.938;7.390;2022-09-11T03:34:25;95565.72;;;11.71;91.84
46638;BME280;32365;46.938;7.390;2022-09-11T03:36:52;95566.44;;;11.66;91.44
46638;BME280;32365;46.938;7.390;2022-09-11T03:39:18;95571.41;;;11.44;92.11
46638;BME280;32365;46.938;7.390;2022-09-11T03:41:45;95567.47;;;11.42;92.51
46638;BME280;32365;46.938;7.390;2022-09-11T03:44:13;95574.00;;;11.44;92.74
46638;BME280;32365;46.938;7.390;2022-09-11T03:46:39;95568.97;;;11.26;92.71
46638;BME280;32365;46.938;7.390;2022-09-11T03:49:06;95570.22;;;11.23;92.86
46638;BME280;32365;46.938;7.390;2022-09-11T03:51:32;95568.41;;;11.23;93.19
46638;BME280;32365;46.938;7.390;2022-09-11T03:53:59;95569.63;;;11.33;93.13
46638;BME280;32365;46.938;7.390;2022-09-11T03:56:25;95566.72;;;11.41;92.56
46638;BME280;32365;46.938;7.390;2022-09-11T03:58:53;95564.81;;;11.24;92.83
46638;BME280;32365;46.938;7.390;2022-09-11T04:01:22;95573.69;;;11.17;92.26
46638;BME280;32365;46.938;7.390;2022-09-11T04:03:49;95567.97;;;11.03;92.85
46638;BME280;32365;46.938;7.390;2022-09-11T04:06:15;95567.16;;;11.02;93.38
46638;BME280;32365;46.938;7.390;2022-09-11T04:08:42;95566.25;;;10.97;93.35
46638;BME280;32365;46.938;7.390;2022-09-11T04:11:08;95564.78;;;10.89;94.31
46638;BME280;32365;46.938;7.390;2022-09-11T04:13:36;95566.94;;;10.80;94.52
46638;BME280;32365;46.938;7.390;2022-09-11T04:16:04;95558.13;;;10.69;94.47
46638;BME280;32365;46.938;7.390;2022-09-11T04:18:33;95565.13;;;10.69;94.83
46638;BME280;32365;46.938;7.390;2022-09-11T04:21:02;95560.88;;;10.74;93.96
46638;BME280;32365;46.938;7.390;2022-09-11T04:23:28;95553.44;;;10.78;94.60
46638;BME280;32365;46.938;7.390;2022-09-11T04:25:55;95560.88;;;10.74;93.84
46638;BME280;32365;46.938;7.390;2022-09-11T04:28:22;95561.06;;;10.73;94.41
46638;BME280;32365;46.938;7.390;2022-09-11T04:30:48;95561.50;;;10.58;94.69
46638;BME280;32365;46.938;7.390;2022-09-11T04:33:15;95571.72;;;10.53;95.38
46638;BME280;32365;46.938;7.390;2022-09-11T04:35:42;95565.78;;;10.52;95.06
46638;BME280;32365;46.938;7.390;2022-09-11T04:38:09;95565.66;;;10.59;95.18
46638;BME280;32365;46.938;7.390;2022-09-11T04:40:35;95566.22;;;10.49;94.77
46638;BME280;32365;46.938;7.390;2022-09-11T04:43:02;95573.41;;;10.47;94.95
46638;BME280;32365;46.938;7.390;2022-09-11T04:45:29;95579.50;;;10.53;95.34
46638;BME280;32365;46.938;7.390;2022-09-11T04:47:57;95574.06;;;10.42;94.88
46638;BME280;32365;46.938;7.390;2022-09-11T04:50:24;95571.13;;;10.39;95.10
46638;BME280;32365;46.938;7.390;2022-09-11T04:52:53;95573.53;;;10.40;95.68
46638;BME280;32365;46.938;7.390;2022-09-11T04:55:20;95578.69;;;10.40;95.80
46638;BME280;32365;46.938;7.390;2022-09-11T04:57:46;95578.22;;;10.43;94.36
46638;BME280;32365;46.938;7.390;2022-09-11T05:00:13;95584.03;;;10.27;95.72
46638;BME280;32365;46.938;7.390;2022-09-11T05:02:39;95594.00;;;10.23;96.24
46638;BME280;32365;46.938;7.390;2022-09-11T05:05:06;95581.97;;;10.29;96.53
46638;BME280;32365;46.938;7.390;2022-09-11T05:07:34;95590.97;;;10.45;96.06
46638;BME280;32365;46.938;7.390;2022-09-11T05:10:02;95587.25;;;10.53;95.14
46638;BME280;32365;46.938;7.390;2022-09-11T05:12:28;95594.78;;;10.42;94.98
46638;BME280;32365;46.938;7.390;2022-09-11T05:14:55;95600.41;;;10.39;95.66
46638;BME280;32365;46.938;7.390;2022-09-11T05:17:22;95604.03;;;10.50;95.38
46638;BME280;32365;46.938;7.390;2022-09-11T05:19:48;95595.25;;;10.51;94.72
46638;BME280;32365;46.938;7.390;2022-09-11T05:22:15;95603.25;;;10.50;94.43
46638;BME280;32365;46.938;7.390;2022-09-11T05:24:41;95599.41;;;10.40;94.67
46638;BME280;32365;46.938;7.390;2022-09-11T05:27:09;95615.00;;;10.34;94.46
46638;BME280;32365;46.938;7.390;2022-09-11T05:29:36;95608.75;;;10.23;95.78
46638;BME280;32365;46.938;7.390;2022-09-11T05:32:03;95616.53;;;10.35;95.38
46638;BME280;32365;46.938;7.390;2022-09-11T05:34:30;95606.94;;;10.42;95.12
46638;BME280;32365;46.938;7.390;2022-09-11T05:36:56;95610.22;;;10.49;94.77
46638;BME280;32365;46.938;7.390;2022-09-11T05:39:23;95609.63;;;10.47;93.61
46638;BME280;32365;46.938;7.390;2022-09-11T05:41:49;95621.47;;;10.55;93.37
46638;BME280;32365;46.938;7.390;2022-09-11T05:44:18;95620.06;;;10.71;92.62
46638;BME280;32365;46.938;7.390;2022-09-11T05:46:45;95623.56;;;10.76;91.82
46638;BME280;32365;46.938;7.390;2022-09-11T05:49:12;95611.63;;;10.75;91.00
46638;BME280;32365;46.938;7.390;2022-09-11T05:51:39;95620.53;;;10.80;91.51
46638;BME280;32365;46.938;7.390;2022-09-11T05:54:06;95625.69;;;10.80;90.93
46638;BME280;32365;46.938;7.390;2022-09-11T05:56:33;95621.44;;;10.85;91.25
46638;BME280;32365;46.938;7.390;2022-09-11T05:58:59;95633.19;;;11.00;90.60
46638;BME280;32365;46.938;7.390;2022-09-11T06:01:27;95630.81;;;11.10;89.14
46638;BME280;32365;46.938;7.390;2022-09-11T06:03:55;95631.25;;;11.07;89.91
46638;BME280;32365;46.938;7.390;2022-09-11T06:06:22;95632.63;;;11.09;90.06
46638;BME280;32365;46.938;7.390;2022-09-11T06:08:49;95643.66;;;11.17;89.72
46638;BME280;32365;46.938;7.390;2022-09-11T06:11:16;95641.19;;;11.10;90.79
46638;BME280;32365;46.938;7.390;2022-09-11T06:13:44;95648.41;;;11.20;90.55
46638;BME280;32365;46.938;7.390;2022-09-11T06:16:11;95656.28;;;11.25;90.68
46638;BME280;32365;46.938;7.390;2022-09-11T06:18:39;95654.94;;;11.34;90.10
46638;BME280;32365;46.938;7.390;2022-09-11T06:21:07;95654.25;;;11.51;89.03
46638;BME280;32365;46.938;7.390;2022-09-11T06:23:35;95656.97;;;11.56;88.40
46638;BME280;32365;46.938;7.390;2022-09-11T06:26:04;95659.44;;;11.63;88.30
46638;BME280;32365;46.938;7.390;2022-09-11T06:28:30;95662.81;;;11.75;87.88
46638;BME280;32365;46.938;7.390;2022-09-11T06:30:59;95652.53;;;11.92;86.97
46638;BME280;32365;46.938;7.390;2022-09-11T06:33:29;95666.72;;;12.13;86.39
46638;BME280;32365;46.938;7.390;2022-09-11T06:35:57;95655.94;;;12.34;85.87
46638;BME280;32365;46.938;7.390;2022-09-11T06:38:24;95667.88;;;12.35;85.79
46638;BME280;32365;46.938;7.390;2022-09-11T06:40:50;95660.97;;;12.40;86.20
46638;BME280;32365;46.938;7.390;2022-09-11T06:43:17;95658.78;;;12.61;83.83
46638;BME280;32365;46.938;7.390;2022-09-11T06:45:43;95653.91;;;12.65;84.75
46638;BME280;32365;46.938;7.390;2022-09-11T06:48:10;95650.84;;;12.68;84.35
46638;BME280;32365;46.938;7.390;2022-09-11T06:50:37;95653.91;;;12.82;83.52
46638;BME280;32365;46.938;7.390;2022-09-11T06:53:05;95653.53;;;13.07;83.13
46638;BME280;32365;46.938;7.390;2022-09-11T06:55:32;95662.44;;;13.28;84.17
46638;BME280;32365;46.938;7.390;2022-09-11T06:57:58;95656.06;;;13.36;83.46
46638;BME280;32365;46.938;7.390;2022-09-11T07:00:26;95654.09;;;13.43;82.04
46638;BME280;32365;46.938;7.390;2022-09-11T07:02:52;95658.16;;;13.73;83.44
46638;BME280;32365;46.938;7.390;2022-09-11T07:05:19;95652.06;;;13.84;79.65
46638;BME280;32365;46.938;7.390;2022-09-11T07:07:46;95647.75;;;13.95;79.71
46638;BME280;32365;46.938;7.390;2022-09-11T07:10:15;95653.13;;;14.11;79.38
46638;BME280;32365;46.938;7.390;2022-09-11T07:12:42;95650.66;;;14.21;80.52
46638;BME280;32365;46.938;7.390;2022-09-11T07:15:09;95643.66;;;14.49;79.42
46638;BME280;32365;46.938;7.390;2022-09-11T07:17:36;95641.88;;;14.77;78.13
46638;BME280;32365;46.938;7.390;2022-09-11T07:20:02;95637.50;;;14.60;76.35
46638;BME280;32365;46.938;7.390;2022-09-11T07:22:29;95644.34;;;14.94;76.11
46638;BME280;32365;46.938;7.390;2022-09-11T07:24:56;95648.38;;;14.80;75.63
46638;BME280;32365;46.938;7.390;2022-09-11T07:27:25;95649.09;;;15.02;75.66
46638;BME280;32365;46.938;7.390;2022-09-11T07:29:52;95648.09;;;15.46;73.66
46638;BME280;32365;46.938;7.390;2022-09-11T07:32:18;95638.78;;;16.19;69.89
46638;BME280;32365;46.938;7.390;2022-09-11T07:34:45;95641.50;;;16.60;68.61
46638;BME280;32365;46.938;7.390;2022-09-11T07:37:12;95635.03;;;17.25;67.54
46638;BME280;32365;46.938;7.390;2022-09-11T07:39:38;95644.72;;;19.06;60.77
46638;BME280;32365;46.938;7.390;2022-09-11T07:42:05;95654.34;;;18.81;58.77
46638;BME280;32365;46.938;7.390;2022-09-11T07:44:33;95650.38;;;18.84;61.24
46638;BME280;32365;46.938;7.390;2022-09-11T07:47:00;95649.28;;;18.90;60.12
46638;BME280;32365;46.938;7.390;2022-09-11T07:49:27;95650.66;;;20.43;55.13
46638;BME280;32365;46.938;7.390;2022-09-11T07:51:53;95646.59;;;19.89;55.50
46638;BME280;32365;46.938;7.390;2022-09-11T07:54:21;95655.78;;;20.10;56.18
46638;BME280;32365;46.938;7.390;2022-09-11T07:56:47;95651.47;;;21.90;49.94
46638;BME280;32365;46.938;7.390;2022-09-11T07:59:14;95639.44;;;22.26;50.56
46638;BME280;32365;46.938;7.390;2022-09-11T08:01:43;95644.00;;;21.36;50.65
46638;BME280;32365;46.938;7.390;2022-09-11T08:04:10;95637.75;;;21.32;52.47
46638;BME280;32365;46.938;7.390;2022-09-11T08:06:38;95639.00;;;20.50;54.22
46638;BME280;32365;46.938;7.390;2022-09-11T08:09:05;95631.59;;;21.23;54.87
46638;BME280;32365;46.938;7.390;2022-09-11T08:11:35;95635.56;;;21.95;51.12
46638;BME280;32365;46.938;7.390;2022-09-11T08:14:02;95632.16;;;21.81;51.26
46638;BME280;32365;46.938;7.390;2022-09-11T08:16:29;95632.81;;;21.59;51.57
46638;BME280;32365;46.938;7.390;2022-09-11T08:18:56;95635.06;;;21.65;51.96
46638;BME280;32365;46.938;7.390;2022-09-11T08:21:23;95635.94;;;21.47;50.09
46638;BME280;32365;46.938;7.390;2022-09-11T08:23:50;95624.19;;;22.96;45.53
46638;BME280;32365;46.938;7.390;2022-09-11T08:26:17;95629.06;;;24.06;42.42
46638;BME280;32365;46.938;7.390;2022-09-11T08:28:46;95621.47;;;22.65;45.36
46638;BME280;32365;46.938;7.390;2022-09-11T08:31:13;95616.81;;;23.30;45.75
46638;BME280;32365;46.938;7.390;2022-09-11T08:33:39;95618.84;;;24.22;46.01
46638;BME280;32365;46.938;7.390;2022-09-11T08:36:09;95613.75;;;25.44;40.87
46638;BME280;32365;46.938;7.390;2022-09-11T08:38:38;95613.88;;;25.56;38.30
46638;BME280;32365;46.938;7.390;2022-09-11T08:41:08;95615.09;;;24.23;40.00
46638;BME280;32365;46.938;7.390;2022-09-11T08:43:43;95617.16;;;23.14;42.58
46638;BME280;32365;46.938;7.390;2022-09-11T08:46:10;95621.88;;;23.58;42.83
46638;BME280;32365;46.938;7.390;2022-09-11T08:48:38;95610.50;;;25.20;39.30
46638;BME280;32365;46.938;7.390;2022-09-11T08:51:12;95620.53;;;24.44;39.32
46638;BME280;32365;46.938;7.390;2022-09-11T08:53:40;95619.91;;;24.21;43.32
46638;BME280;32365;46.938;7.390;2022-09-11T08:56:07;95619.16;;;24.47;43.27
46638;BME280;32365;46.938;7.390;2022-09-11T08:58:39;95624.34;;;23.45;40.99
46638;BME280;32365;46.938;7.390;2022-09-11T09:01:10;95620.47;;;23.20;41.80
46638;BME280;32365;46.938;7.390;2022-09-11T09:03:51;95623.91;;;24.01;42.08
46638;BME280;32365;46.938;7.390;2022-09-11T09:09:11;95622.28;;;22.88;43.95
46638;BME280;32365;46.938;7.390;2022-09-11T09:11:43;95624.13;;;23.73;43.93
46638;BME280;32365;46.938;7.390;2022-09-11T09:14:21;95627.06;;;23.31;43.66
46638;BME280;32365;46.938;7.390;2022-09-11T09:16:54;95628.94;;;23.40;45.15
46638;BME280;32365;46.938;7.390;2022-09-11T09:19:25;95626.16;;;25.61;38.51
46638;BME280;32365;46.938;7.390;2022-09-11T09:21:57;95621.50;;;25.58;38.38
46638;BME280;32365;46.938;7.390;2022-09-11T09:24:26;95623.81;;;24.85;37.79
46638;BME280;32365;46.938;7.390;2022-09-11T09:26:55;95608.88;;;24.54;40.43
46638;BME280;32365;46.938;7.390;2022-09-11T09:29:22;95605.94;;;24.82;41.54
46638;BME280;32365;46.938;7.390;2022-09-11T09:31:49;95612.59;;;24.97;38.53
46638;BME280;32365;46.938;7.390;2022-09-11T09:34:18;95603.00;;;25.40;36.72
46638;BME280;32365;46.938;7.390;2022-09-11T09:36:48;95614.00;;;24.42;36.64
46638;BME280;32365;46.938;7.390;2022-09-11T09:39:15;95606.75;;;23.90;38.02
46638;BME280;32365;46.938;7.390;2022-09-11T09:41:55;95599.38;;;24.97;37.26
46638;BME280;32365;46.938;7.390;2022-09-11T09:44:27;95601.94;;;25.41;36.68
46638;BME280;32365;46.938;7.390;2022-09-11T09:46:58;95597.53;;;25.84;34.34
46638;BME280;32365;46.938;7.390;2022-09-11T09:49:25;95602.81;;;24.89;36.96
46638;BME280;32365;46.938;7.390;2022-09-11T09:51:53;95601.69;;;24.99;36.46
46638;BME280;32365;46.938;7.390;2022-09-11T09:54:20;95593.22;;;26.85;34.22
46638;BME280;32365;46.938;7.390;2022-09-11T09:56:53;95595.25;;;29.87;28.66
46638;BME280;32365;46.938;7.390;2022-09-11T09:59:24;95589.63;;;26.26;34.76
46638;BME280;32365;46.938;7.390;2022-09-11T10:01:52;95591.28;;;26.73;33.46
46638;BME280;32365;46.938;7.390;2022-09-11T10:04:19;95581.59;;;25.84;36.68
46638;BME280;32365;46.938;7.390;2022-09-11T10:06:47;95587.91;;;25.71;35.50
46638;BME280;32365;46.938;7.390;2022-09-11T10:09:21;95584.78;;;26.83;36.40
46638;BME280;32365;46.938;7.390;2022-09-11T10:11:52;95588.56;;;25.97;33.75
46638;BME280;32365;46.938;7.390;2022-09-11T10:14:20;95577.44;;;24.70;38.81
46638;BME280;32365;46.938;7.390;2022-09-11T10:16:48;95575.66;;;26.72;34.45
46638;BME280;32365;46.938;7.390;2022-09-11T10:22:01;95572.09;;;26.34;38.33
46638;BME280;32365;46.938;7.390;2022-09-11T10:24:41;95569.19;;;27.28;34.70
46638;BME280;32365;46.938;7.390;2022-09-11T10:27:08;95572.53;;;26.15;34.30
46638;BME280;32365;46.938;7.390;2022-09-11T10:29:37;95568.56;;;26.97;34.39
46638;BME280;32365;46.938;7.390;2022-09-11T10:32:15;95573.41;;;26.62;33.53
46638;BME280;32365;46.938;7.390;2022-09-11T10:34:43;95563.47;;;26.92;35.93
46638;BME280;32365;46.938;7.390;2022-09-11T10:37:16;95568.94;;;26.74;34.68
46638;BME280;32365;46.938;7.390;2022-09-11T10:39:47;95568.94;;;27.33;35.28
46638;BME280;32365;46.938;7.390;2022-09-11T10:42:15;95567.84;;;27.34;33.24
46638;BME280;32365;46.938;7.390;2022-09-11T10:44:42;95565.00;;;27.64;33.75
46638;BME280;32365;46.938;7.390;2022-09-11T10:47:12;95569.06;;;28.80;28.99
46638;BME280;32365;46.938;7.390;2022-09-11T10:49:41;95567.34;;;27.07;34.22
46638;BME280;32365;46.938;7.390;2022-09-11T10:52:15;95575.19;;;27.87;31.35
46638;BME280;32365;46.938;7.390;2022-09-11T10:54:51;95574.78;;;29.11;29.79
46638;BME280;32365;46.938;7.390;2022-09-11T10:57:20;95578.25;;;28.26;32.80
46638;BME280;32365;46.938;7.390;2022-09-11T10:59:53;95571.09;;;27.64;36.23
46638;BME280;32365;46.938;7.390;2022-09-11T11:02:27;95568.28;;;27.98;36.03
46638;BME280;32365;46.938;7.390;2022-09-11T11:04:55;95566.13;;;27.63;35.56
46638;BME280;32365;46.938;7.390;2022-09-11T11:07:27;95565.59;;;26.99;36.66
46638;BME280;32365;46.938;7.390;2022-09-11T11:09:59;95567.13;;;29.09;34.12
46638;BME280;32365;46.938;7.390;2022-09-11T11:12:33;95561.53;;;29.14;33.08
46638;BME280;32365;46.938;7.390;2022-09-11T11:15:11;95562.75;;;27.91;34.53
46638;BME280;32365;46.938;7.390;2022-09-11T11:17:42;95563.91;;;27.77;35.56
46638;BME280;32365;46.938;7.390;2022-09-11T11:20:26;95567.63;;;28.70;32.05
46638;BME280;32365;46.938;7.390;2022-09-11T11:23:00;95566.06;;;28.53;34.14
46638;BME280;32365;46.938;7.390;2022-09-11T11:25:32;95558.41;;;28.80;32.65
46638;BME280;32365;46.938;7.390;2022-09-11T11:28:11;95562.28;;;28.26;33.99
46638;BME280;32365;46.938;7.390;2022-09-11T11:30:44;95552.81;;;27.75;32.47
46638;BME280;32365;46.938;7.390;2022-09-11T11:33:20;95547.91;;;29.84;29.87
46638;BME280;32365;46.938;7.390;2022-09-11T11:35:55;95556.59;;;28.27;31.78
46638;BME280;32365;46.938;7.390;2022-09-11T11:38:24;95550.19;;;29.49;32.31
46638;BME280;32365;46.938;7.390;2022-09-11T11:40:53;95544.94;;;28.61;33.25
46638;BME280;32365;46.938;7.390;2022-09-11T11:43:24;95556.66;;;28.44;32.71
46638;BME280;32365;46.938;7.390;2022-09-11T11:45:54;95549.81;;;27.64;35.86
46638;BME280;32365;46.938;7.390;2022-09-11T11:48:24;95542.22;;;28.73;32.43
46638;BME280;32365;46.938;7.390;2022-09-11T11:50:53;95540.88;;;30.11;30.12
46638;BME280;32365;46.938;7.390;2022-09-11T11:53:23;95536.56;;;30.65;28.04
46638;BME280;32365;46.938;7.390;2022-09-11T11:55:57;95541.50;;;29.37;29.98
46638;BME280;32365;46.938;7.390;2022-09-11T11:58:30;95537.13;;;29.28;30.89
46638;BME280;32365;46.938;7.390;2022-09-11T12:01:00;95539.34;;;29.42;31.29
46638;BME280;32365;46.938;7.390;2022-09-11T12:03:31;95540.25;;;29.66;26.97
46638;BME280;32365;46.938;7.390;2022-09-11T12:06:01;95536.47;;;28.02;33.09
46638;BME280;32365;46.938;7.390;2022-09-11T12:08:28;95537.13;;;29.28;31.26
46638;BME280;32365;46.938;7.390;2022-09-11T12:10:56;95534.94;;;27.14;32.77
46638;BME280;32365;46.938;7.390;2022-09-11T12:13:24;95535.66;;;27.60;31.54
46638;BME280;32365;46.938;7.390;2022-09-11T12:16:00;95534.09;;;27.34;33.52
46638;BME280;32365;46.938;7.390;2022-09-11T12:18:27;95531.88;;;28.84;31.20
46638;BME280;32365;46.938;7.390;2022-09-11T12:21:31;95529.22;;;29.84;29.27
46638;BME280;32365;46.938;7.390;2022-09-11T12:24:09;95532.81;;;32.20;25.24
46638;BME280;32365;46.938;7.390;2022-09-11T12:26:36;95518.81;;;31.46;27.40
46638;BME280;32365;46.938;7.390;2022-09-11T12:37:18;95517.88;;;29.03;27.29
46638;BME280;32365;46.938;7.390;2022-09-11T12:39:49;95517.44;;;28.56;28.45
46638;BME280;32365;46.938;7.390;2022-09-11T12:45:02;95511.00;;;27.76;30.70
46638;BME280;32365;46.938;7.390;2022-09-11T12:47:31;95506.34;;;28.99;29.05
46638;BME280;32365;46.938;7.390;2022-09-11T12:50:04;95507.31;;;30.96;27.50
46638;BME280;32365;46.938;7.390;2022-09-11T12:52:35;95501.09;;;28.86;27.45
46638;BME280;32365;46.938;7.390;2022-09-11T12:55:06;95501.75;;;31.05;26.85
46638;BME280;32365;46.938;7.390;2022-09-11T12:57:45;95502.78;;;28.79;27.41
46638;BME280;32365;46.938;7.390;2022-09-11T13:00:18;95491.84;;;29.64;29.01
46638;BME280;32365;46.938;7.390;2022-09-11T13:02:49;95500.06;;;28.75;29.62
46638;BME280;32365;46.938;7.390;2022-09-11T13:05:18;95491.97;;;28.87;28.07
46638;BME280;32365;46.938;7.390;2022-09-11T13:07:50;95486.47;;;29.12;28.01
46638;BME280;32365;46.938;7.390;2022-09-11T13:10:22;95480.28;;;28.32;29.02
46638;BME280;32365;46.938;7.390;2022-09-11T13:12:51;95479.63;;;28.51;27.19
46638;BME280;32365;46.938;7.390;2022-09-11T13:15:39;95481.38;;;27.24;31.41
46638;BME280;32365;46.938;7.390;2022-09-11T13:18:23;95478.66;;;29.91;28.02
46638;BME280;32365;46.938;7.390;2022-09-11T13:20:57;95479.03;;;30.95;25.78
46638;BME280;32365;46.938;7.390;2022-09-11T13:23:26;95470.66;;;28.87;27.51
46638;BME280;32365;46.938;7.390;2022-09-11T13:25:53;95465.19;;;29.64;25.24
46638;BME280;32365;46.938;7.390;2022-09-11T13:28:20;95462.59;;;31.43;24.13